Time;durP1;ratioP1;P1;durP2;ratioP2;P2;SDS_P1;SDS_P2;PMS_P1;PMS_P2;Temp;Humidity;BMP_temperature;BMP_pressure;BME280_temperature;BME280_humidity;BME280_pressure;Samples;Min_cycle;Max_cycle;Signal;HPM_P1;HPM_P2
2021/09/20 00:00:14;;;;;;;2.70;2.50;;;13.50;99.90;;;;;;4994736;28;20606;-66
2021/09/20 00:02:40;;;;;;;4.10;3.80;;;13.60;99.90;;;;;;4995031;28;20190;-66
2021/09/20 00:05:07;;;;;;;3.00;2.70;;;13.40;99.70;;;;;;4995123;28;20393;-66
2021/09/20 00:07:33;;;;;;;2.47;2.37;;;13.60;99.90;;;;;;4994899;28;20186;-65
2021/09/20 00:09:59;;;;;;;3.87;3.57;;;13.60;99.90;;;;;;4994779;28;20412;-66
2021/09/20 00:12:25;;;;;;;2.47;2.37;;;13.70;99.90;;;;;;4994902;28;20785;-65
2021/09/20 00:14:50;;;;;;;2.37;2.23;;;13.80;99.90;;;;;;4994831;28;20201;-66
2021/09/20 00:17:16;;;;;;;3.23;2.93;;;13.80;99.90;;;;;;4994804;28;20256;-66
2021/09/20 00:19:41;;;;;;;3.23;3.03;;;13.50;98.90;;;;;;4994454;28;20223;-66
2021/09/20 00:22:07;;;;;;;2.93;2.50;;;13.40;99.10;;;;;;4994594;28;20196;-66
2021/09/20 00:24:33;;;;;;;2.60;2.40;;;13.60;99.90;;;;;;4994723;28;20166;-66
2021/09/20 00:26:58;;;;;;;3.13;2.83;;;13.70;99.90;;;;;;4994625;28;20317;-65
2021/09/20 00:29:24;;;;;;;2.57;2.37;;;13.40;99.90;;;;;;4994306;28;20170;-66
2021/09/20 00:31:49;;;;;;;3.43;3.13;;;13.60;99.90;;;;;;4994556;28;20205;-66
2021/09/20 00:34:15;;;;;;;3.73;3.43;;;13.50;99.90;;;;;;4994551;28;20166;-65
2021/09/20 00:36:41;;;;;;;3.27;3.07;;;13.30;99.20;;;;;;4994406;28;20174;-66
2021/09/20 00:39:07;;;;;;;2.80;2.70;;;12.80;97.70;;;;;;4993984;28;20186;-66
2021/09/20 00:41:32;;;;;;;2.70;2.50;;;12.90;99.90;;;;;;4993771;28;20197;-66
2021/09/20 00:43:58;;;;;;;3.07;2.87;;;13.20;99.90;;;;;;4994321;28;20176;-66
2021/09/20 00:46:23;;;;;;;3.33;3.13;;;13.10;99.90;;;;;;4994339;28;20558;-66
2021/09/20 00:48:49;;;;;;;2.90;2.70;;;13.30;99.90;;;;;;4993850;28;20206;-66
2021/09/20 00:51:15;;;;;;;3.13;2.83;;;13.00;99.50;;;;;;4994102;28;20533;-66
2021/09/20 00:53:40;;;;;;;3.30;3.00;;;13.10;99.90;;;;;;4994134;28;20205;-66
2021/09/20 00:56:06;;;;;;;3.83;2.50;;;12.70;98.30;;;;;;4994104;28;20158;-66
2021/09/20 00:58:32;;;;;;;2.67;2.47;;;12.50;99.30;;;;;;4993449;28;20213;-65
2021/09/20 01:01:00;;;;;;;3.60;3.40;;;12.90;99.90;;;;;;4993982;28;20666;-66
2021/09/20 01:03:26;;;;;;;2.70;2.60;;;13.10;99.90;;;;;;4993972;28;20662;-65
2021/09/20 01:05:52;;;;;;;2.50;2.40;;;13.30;99.90;;;;;;4993898;28;20455;-66
2021/09/20 01:08:18;;;;;;;2.53;2.43;;;13.20;99.90;;;;;;4993471;28;20532;-66
2021/09/20 01:10:43;;;;;;;2.73;2.63;;;13.40;99.90;;;;;;4993769;28;20170;-66
2021/09/20 01:13:09;;;;;;;2.90;2.70;;;13.50;99.90;;;;;;4993773;28;20170;-66
2021/09/20 01:15:34;;;;;;;3.20;2.90;;;13.60;99.90;;;;;;4993708;28;20693;-66
2021/09/20 01:18:00;;;;;;;2.63;2.43;;;13.10;98.50;;;;;;4994265;28;20197;-66
2021/09/20 01:20:26;;;;;;;3.30;3.10;;;13.30;99.90;;;;;;4993483;28;20626;-66
2021/09/20 01:23:04;;;;;;;2.50;2.40;;;13.20;99.90;;;;;;4993537;28;20201;-66
2021/09/20 01:25:31;;;;;;;2.67;2.57;;;13.40;99.90;;;;;;4993622;28;20409;-66
2021/09/20 01:27:57;;;;;;;2.70;2.60;;;13.40;99.90;;;;;;4993168;28;20445;-65
2021/09/20 01:30:24;;;;;;;2.60;2.50;;;13.40;99.90;;;;;;4993335;28;20464;-66
2021/09/20 01:32:50;;;;;;;2.87;2.67;;;13.60;99.90;;;;;;4993291;28;20635;-65
2021/09/20 01:35:20;;;;;;;2.67;2.57;;;13.50;99.90;;;;;;4993294;28;20409;-66
2021/09/20 01:37:46;;;;;;;3.20;3.00;;;13.50;99.90;;;;;;4993142;28;20194;-66
2021/09/20 01:40:13;;;;;;;2.83;2.63;;;13.70;99.90;;;;;;4993040;28;20406;-65
2021/09/20 01:42:40;;;;;;;3.30;2.60;;;13.60;99.90;;;;;;4993149;28;20531;-66
2021/09/20 01:45:06;;;;;;;2.50;2.40;;;13.70;99.90;;;;;;4993227;28;20433;-66
2021/09/20 01:47:32;;;;;;;1.97;1.87;;;13.50;99.90;;;;;;4992992;28;20428;-66
2021/09/20 01:49:58;;;;;;;2.67;2.57;;;13.50;99.90;;;;;;4992761;28;20401;-66
2021/09/20 01:52:24;;;;;;;3.10;2.90;;;13.60;99.90;;;;;;4992491;28;20174;-66
2021/09/20 01:54:49;;;;;;;3.00;2.80;;;13.60;99.90;;;;;;4993166;28;20177;-66
2021/09/20 01:57:17;;;;;;;2.80;2.70;;;13.60;99.90;;;;;;4992806;28;20436;-66
2021/09/20 01:59:43;;;;;;;3.70;2.60;;;13.40;99.90;;;;;;4992686;28;20181;-66
2021/09/20 02:02:08;;;;;;;2.80;2.60;;;13.40;99.90;;;;;;4992701;28;20436;-65
2021/09/20 02:04:34;;;;;;;2.70;2.50;;;13.00;97.70;;;;;;4992917;28;20773;-66
2021/09/20 02:06:59;;;;;;;2.80;2.60;;;13.00;98.50;;;;;;4992758;28;20699;-65
2021/09/20 02:09:25;;;;;;;2.70;2.60;;;13.00;99.60;;;;;;4992556;28;20170;-65
2021/09/20 02:11:51;;;;;;;2.87;2.73;;;12.80;98.40;;;;;;4992652;28;20170;-65
2021/09/20 02:14:16;;;;;;;3.77;3.17;;;13.10;99.90;;;;;;4992778;28;20568;-65
2021/09/20 02:16:42;;;;;;;2.47;2.37;;;12.30;96.20;;;;;;4993155;28;20170;-65
2021/09/20 02:19:09;;;;;;;2.77;2.67;;;12.40;99.90;;;;;;4992349;28;20197;-66
2021/09/20 02:21:34;;;;;;;2.60;2.40;;;12.70;99.90;;;;;;4992432;28;20182;-66
2021/09/20 02:24:00;;;;;;;2.50;2.40;;;12.90;99.90;;;;;;4992636;28;20405;-65
2021/09/20 02:26:26;;;;;;;2.13;2.03;;;12.90;99.90;;;;;;4992518;28;20166;-65
2021/09/20 02:28:51;;;;;;;2.30;2.20;;;13.00;99.90;;;;;;4992158;28;20217;-65
2021/09/20 02:31:17;;;;;;;2.87;2.67;;;12.90;99.90;;;;;;4992327;28;20228;-65
2021/09/20 02:33:43;;;;;;;2.70;2.50;;;13.10;99.90;;;;;;4992525;28;20162;-65
2021/09/20 02:36:09;;;;;;;2.67;2.57;;;13.10;99.90;;;;;;4992558;28;20769;-65
2021/09/20 02:38:35;;;;;;;2.70;2.57;;;13.10;99.90;;;;;;4992082;28;20189;-66
2021/09/20 02:41:00;;;;;;;2.30;2.20;;;13.20;99.90;;;;;;4992490;28;20452;-66
2021/09/20 02:43:27;;;;;;;2.57;2.40;;;13.20;99.90;;;;;;4992369;28;20461;-65
2021/09/20 02:45:52;;;;;;;3.10;2.90;;;13.10;99.90;;;;;;4992406;28;20174;-66
2021/09/20 02:48:19;;;;;;;2.23;2.13;;;13.20;99.90;;;;;;4991922;28;20504;-65
2021/09/20 02:50:44;;;;;;;3.80;2.27;;;13.20;99.90;;;;;;4992318;28;20170;-66
2021/09/20 02:53:10;;;;;;;1.90;1.80;;;13.20;99.90;;;;;;4992374;28;20417;-66
2021/09/20 02:55:36;;;;;;;2.27;2.10;;;13.20;99.90;;;;;;4992285;28;20257;-65
2021/09/20 02:58:01;;;;;;;2.47;2.37;;;13.20;99.90;;;;;;4991844;28;20201;-65
2021/09/20 03:00:27;;;;;;;2.63;2.50;;;13.10;99.90;;;;;;4992190;28;20253;-66
2021/09/20 03:02:53;;;;;;;2.70;2.53;;;12.70;99.10;;;;;;4992710;28;20198;-65
2021/09/20 03:05:19;;;;;;;2.70;2.50;;;12.90;99.90;;;;;;4996195;28;20658;-65
2021/09/20 03:07:44;;;;;;;2.33;2.13;;;12.50;98.70;;;;;;4995944;28;20240;-65
2021/09/20 03:10:10;;;;;;;2.10;2.00;;;12.60;99.90;;;;;;4995730;28;20170;-66
2021/09/20 03:12:36;;;;;;;3.20;2.97;;;12.70;99.90;;;;;;4996089;28;20180;-65
2021/09/20 03:15:02;;;;;;;2.23;2.13;;;12.70;99.90;;;;;;4996042;28;20177;-67
2021/09/20 03:17:28;;;;;;;2.60;2.50;;;12.70;99.90;;;;;;4995853;28;20255;-66
2021/09/20 03:19:53;;;;;;;2.23;2.13;;;12.60;99.90;;;;;;4995546;28;20902;-65
2021/09/20 03:22:19;;;;;;;2.90;2.73;;;12.80;99.90;;;;;;4995819;28;20313;-65
2021/09/20 03:24:45;;;;;;;2.83;2.63;;;12.70;99.90;;;;;;4995802;28;20566;-66
2021/09/20 03:27:11;;;;;;;2.70;2.50;;;12.70;99.90;;;;;;4995608;28;20658;-66
2021/09/20 03:29:36;;;;;;;2.03;1.93;;;12.60;99.90;;;;;;4995386;28;20409;-65
2021/09/20 03:32:02;;;;;;;2.30;2.20;;;12.50;99.90;;;;;;4995753;28;20324;-66
2021/09/20 03:34:28;;;;;;;2.30;2.20;;;12.70;99.90;;;;;;4995637;28;20170;-65
2021/09/20 03:36:53;;;;;;;2.50;2.30;;;12.80;99.90;;;;;;4995634;28;20178;-66
2021/09/20 03:39:19;;;;;;;2.00;1.90;;;12.80;99.90;;;;;;4994968;28;20271;-65
2021/09/20 03:41:44;;;;;;;2.73;2.53;;;12.80;99.90;;;;;;4995373;28;20196;-65
2021/09/20 03:44:10;;;;;;;2.50;2.30;;;12.80;99.90;;;;;;4995388;28;20198;-65
2021/09/20 03:46:35;;;;;;;1.87;1.77;;;12.80;99.90;;;;;;4995560;28;20170;-66
2021/09/20 03:49:03;;;;;;;2.77;2.57;;;12.90;99.90;;;;;;4994995;28;20677;-66
2021/09/20 03:51:28;;;;;;;2.10;2.00;;;12.90;99.90;;;;;;4995242;28;20209;-65
2021/09/20 03:53:54;;;;;;;1.93;1.83;;;12.90;99.90;;;;;;4995329;28;20409;-65
2021/09/20 03:56:20;;;;;;;2.67;2.50;;;12.90;99.90;;;;;;4995229;28;20245;-66
2021/09/20 03:58:45;;;;;;;2.47;2.27;;;12.90;99.90;;;;;;4994627;28;20201;-65
2021/09/20 04:01:11;;;;;;;2.27;2.17;;;13.00;99.90;;;;;;4995116;28;20170;-65
2021/09/20 04:03:37;;;;;;;2.57;2.40;;;13.00;99.90;;;;;;4994958;28;20248;-66
2021/09/20 04:06:02;;;;;;;2.93;2.73;;;12.90;99.90;;;;;;4995090;28;20168;-66
2021/09/20 04:08:29;;;;;;;2.47;2.37;;;12.90;99.90;;;;;;4994522;28;20196;-65
2021/09/20 04:10:56;;;;;;;3.00;2.83;;;12.90;99.90;;;;;;4994889;28;20174;-66
2021/09/20 04:13:22;;;;;;;2.47;2.37;;;12.90;99.90;;;;;;4994872;28;20405;-65
2021/09/20 04:15:55;;;;;;;1.97;1.87;;;13.00;99.90;;;;;;4993959;28;20484;-65
2021/09/20 04:18:26;;;;;;;2.23;1.97;;;13.00;99.90;;;;;;4994502;28;20429;-66
2021/09/20 04:20:52;;;;;;;2.20;2.10;;;12.90;99.90;;;;;;4994708;28;20409;-65
2021/09/20 04:23:20;;;;;;;2.53;2.33;;;12.90;99.90;;;;;;4994622;28;20547;-65
2021/09/20 04:25:47;;;;;;;2.27;2.17;;;12.90;99.90;;;;;;4994672;28;20401;-66
2021/09/20 04:28:13;;;;;;;2.00;1.90;;;12.90;99.90;;;;;;4994315;28;20532;-66
2021/09/20 04:30:43;;;;;;;3.27;2.73;;;12.80;99.90;;;;;;4994548;28;20393;-66
2021/09/20 04:33:10;;;;;;;2.50;2.40;;;12.70;99.90;;;;;;4994585;28;20492;-66
2021/09/20 04:35:35;;;;;;;3.73;3.43;;;12.70;99.90;;;;;;4994583;28;20412;-66
2021/09/20 04:38:01;;;;;;;2.03;1.93;;;12.60;99.90;;;;;;4994189;28;20430;-65
2021/09/20 04:40:26;;;;;;;2.50;2.30;;;12.60;99.90;;;;;;4994405;28;20210;-66
2021/09/20 04:42:52;;;;;;;2.57;2.37;;;12.60;99.90;;;;;;4994343;28;20563;-65
2021/09/20 04:45:17;;;;;;;2.93;2.33;;;12.70;99.90;;;;;;4994379;28;20166;-65
2021/09/20 04:47:43;;;;;;;2.60;2.50;;;12.10;99.30;;;;;;4994225;28;20204;-65
2021/09/20 04:50:09;;;;;;;2.67;2.47;;;12.20;99.90;;;;;;4993956;28;20166;-66
2021/09/20 04:52:34;;;;;;;2.73;2.03;;;12.30;99.90;;;;;;4994462;28;20642;-65
2021/09/20 04:55:00;;;;;;;3.00;2.80;;;12.40;99.90;;;;;;4994119;28;20406;-65
2021/09/20 04:57:26;;;;;;;2.17;2.07;;;12.50;99.90;;;;;;4993940;28;20251;-66
2021/09/20 04:59:51;;;;;;;3.13;2.93;;;12.50;99.90;;;;;;4993721;28;20174;-64
2021/09/20 05:02:17;;;;;;;2.40;2.30;;;12.60;99.90;;;;;;4993950;28;20217;-64
2021/09/20 05:04:42;;;;;;;2.90;2.70;;;12.60;99.90;;;;;;4994057;28;20213;-64
2021/09/20 05:07:08;;;;;;;3.10;2.90;;;12.60;99.90;;;;;;4993839;28;20538;-63
2021/09/20 05:09:33;;;;;;;2.60;2.40;;;12.50;99.90;;;;;;4994041;28;20174;-64
2021/09/20 05:11:59;;;;;;;2.90;2.80;;;12.30;99.30;;;;;;4993779;28;20249;-65
2021/09/20 05:14:25;;;;;;;2.97;2.30;;;12.40;99.90;;;;;;4993872;28;20185;-63
2021/09/20 05:16:52;;;;;;;2.70;2.50;;;12.60;99.90;;;;;;4993812;28;20261;-64
2021/09/20 05:19:18;;;;;;;2.30;2.20;;;12.30;99.90;;;;;;4993264;28;20256;-64
2021/09/20 05:21:44;;;;;;;2.20;2.10;;;11.90;98.00;;;;;;4993526;28;20457;-65
2021/09/20 05:24:09;;;;;;;2.53;2.33;;;12.10;99.90;;;;;;4993576;28;20402;-63
2021/09/20 05:26:35;;;;;;;2.60;2.47;;;12.20;99.90;;;;;;4993458;28;20682;-64
2021/09/20 05:29:01;;;;;;;3.00;2.90;;;12.30;99.90;;;;;;4993166;28;20196;-63
2021/09/20 05:31:26;;;;;;;2.57;2.47;;;12.50;99.90;;;;;;4993412;28;20186;-63
2021/09/20 05:33:52;;;;;;;2.50;2.30;;;12.50;99.90;;;;;;4993480;28;20243;-66
2021/09/20 05:36:17;;;;;;;3.13;2.87;;;12.50;99.90;;;;;;4993361;28;20256;-63
2021/09/20 05:38:43;;;;;;;3.13;2.93;;;12.60;99.90;;;;;;4992758;28;20280;-65
2021/09/20 05:41:09;;;;;;;3.00;2.80;;;12.40;99.90;;;;;;4993362;28;20172;-66
2021/09/20 05:43:34;;;;;;;2.80;2.60;;;12.00;98.50;;;;;;4993260;28;20209;-64
2021/09/20 05:46:00;;;;;;;2.47;2.27;;;11.90;98.70;;;;;;4993352;28;20220;-63
2021/09/20 05:48:26;;;;;;;2.83;2.63;;;11.70;98.00;;;;;;4992787;28;20806;-63
2021/09/20 05:50:51;;;;;;;3.40;3.20;;;11.70;98.20;;;;;;4993094;28;20174;-63
2021/09/20 05:53:17;;;;;;;4.47;2.77;;;11.20;95.70;;;;;;4993046;28;20178;-63
2021/09/20 05:55:43;;;;;;;3.20;3.00;;;11.00;96.90;;;;;;4993183;28;20236;-66
2021/09/20 05:58:09;;;;;;;3.47;3.10;;;11.30;99.90;;;;;;4992470;28;20299;-63
2021/09/20 06:00:35;;;;;;;4.47;2.93;;;11.60;99.90;;;;;;4992945;28;20405;-64
2021/09/20 06:03:01;;;;;;;4.10;3.40;;;11.80;99.90;;;;;;4992947;28;20237;-63
2021/09/20 06:05:27;;;;;;;5.40;3.07;;;12.00;99.90;;;;;;4992978;28;20169;-63
2021/09/20 06:07:52;;;;;;;3.43;3.17;;;12.20;99.90;;;;;;4992697;28;20185;-65
2021/09/20 06:10:18;;;;;;;3.67;3.37;;;12.40;99.90;;;;;;4992592;28;20180;-63
2021/09/20 06:12:45;;;;;;;10.27;3.30;;;12.50;99.90;;;;;;4992814;28;20181;-63
2021/09/20 06:15:13;;;;;;;3.63;3.33;;;12.60;99.90;;;;;;4992738;28;20405;-62
2021/09/20 06:17:39;;;;;;;7.53;3.20;;;12.60;99.90;;;;;;4992699;28;20425;-63
2021/09/20 06:20:07;;;;;;;5.13;2.90;;;12.70;99.90;;;;;;4992300;28;20539;-63
2021/09/20 06:22:33;;;;;;;3.87;3.17;;;12.70;99.90;;;;;;4992580;28;20460;-63
2021/09/20 06:24:59;;;;;;;4.40;3.60;;;12.70;99.90;;;;;;4992658;28;20746;-63
2021/09/20 06:27:28;;;;;;;3.33;3.13;;;12.70;99.90;;;;;;4992544;28;20440;-63
2021/09/20 06:29:54;;;;;;;3.47;3.17;;;12.80;99.90;;;;;;4992249;28;20413;-65
2021/09/20 06:32:20;;;;;;;2.83;2.63;;;12.90;99.90;;;;;;4992686;28;20424;-66
2021/09/20 06:34:46;;;;;;;4.83;2.90;;;13.00;99.90;;;;;;4992403;28;20424;-64
2021/09/20 06:37:12;;;;;;;7.00;3.67;;;13.00;99.90;;;;;;4992779;28;20634;-63
2021/09/20 06:39:38;;;;;;;2.53;2.43;;;13.10;99.90;;;;;;4991943;28;20401;-63
2021/09/20 06:42:06;;;;;;;3.70;3.40;;;13.10;99.90;;;;;;4992384;28;20206;-63
2021/09/20 06:44:34;;;;;;;3.00;2.70;;;13.20;99.90;;;;;;4992538;28;20436;-63
2021/09/20 06:47:00;;;;;;;4.57;3.30;;;13.20;99.90;;;;;;4992595;28;20409;-63
2021/09/20 06:49:26;;;;;;;4.10;3.40;;;13.30;99.90;;;;;;4992215;28;20405;-63
2021/09/20 06:51:52;;;;;;;4.10;2.87;;;13.40;99.90;;;;;;4992489;28;20184;-63
2021/09/20 06:54:19;;;;;;;5.17;4.10;;;13.50;99.90;;;;;;4992521;28;20488;-63
2021/09/20 06:56:45;;;;;;;3.67;3.47;;;13.50;99.90;;;;;;4992420;28;20261;-63
2021/09/20 06:59:11;;;;;;;2.50;2.40;;;13.60;99.90;;;;;;4991973;28;20540;-63
2021/09/20 07:01:37;;;;;;;2.77;2.57;;;13.70;99.90;;;;;;4992286;28;20178;-63
2021/09/20 07:04:03;;;;;;;3.50;3.10;;;13.70;99.90;;;;;;4992303;28;20468;-63
2021/09/20 07:06:28;;;;;;;3.30;3.10;;;13.80;99.90;;;;;;4992311;28;20654;-64
2021/09/20 07:08:54;;;;;;;3.40;2.90;;;13.90;99.90;;;;;;5054793;22;20584;-64
2021/09/20 07:11:20;;;;;;;2.90;2.70;;;13.80;99.90;;;;;;5051491;28;20578;-66
2021/09/20 07:13:45;;;;;;;3.07;2.77;;;13.90;99.90;;;;;;5051614;28;20540;-63
2021/09/20 07:16:11;;;;;;;2.83;2.70;;;14.00;99.90;;;;;;5051472;28;20168;-63
2021/09/20 07:18:36;;;;;;;5.00;4.10;;;14.10;99.90;;;;;;5050821;28;20241;-63
2021/09/20 07:21:03;;;;;;;4.13;3.77;;;14.30;99.90;;;;;;5051249;28;20647;-64
2021/09/20 07:23:29;;;;;;;3.97;3.60;;;14.10;99.90;;;;;;5051263;28;20214;-63
2021/09/20 07:25:55;;;;;;;4.40;3.70;;;13.90;99.80;;;;;;5051303;28;20410;-64
2021/09/20 07:28:20;;;;;;;3.60;3.30;;;14.00;99.90;;;;;;5050908;28;20188;-65
2021/09/20 07:30:46;;;;;;;4.97;4.57;;;14.00;99.90;;;;;;5051209;28;20243;-66
2021/09/20 07:33:12;;;;;;;5.13;4.73;;;14.00;99.90;;;;;;5051135;28;20493;-63
2021/09/20 07:35:38;;;;;;;3.93;3.60;;;14.00;99.90;;;;;;5051223;28;20247;-63
2021/09/20 07:38:03;;;;;;;4.73;4.37;;;14.00;99.90;;;;;;5050818;28;20249;-63
2021/09/20 07:40:29;;;;;;;4.40;4.00;;;13.90;99.90;;;;;;5051127;28;20419;-63
2021/09/20 07:42:57;;;;;;;3.73;3.43;;;13.90;99.90;;;;;;5051067;28;20278;-63
2021/09/20 07:45:23;;;;;;;5.43;5.00;;;14.00;99.90;;;;;;5051173;28;21012;-63
2021/09/20 07:47:49;;;;;;;5.73;4.50;;;14.00;99.90;;;;;;5050909;28;20510;-63
2021/09/20 07:50:17;;;;;;;3.50;3.20;;;14.00;99.90;;;;;;5051730;28;20493;-66
2021/09/20 07:52:44;;;;;;;4.83;4.40;;;14.00;99.90;;;;;;5054821;28;20447;-66
2021/09/20 07:55:11;;;;;;;4.33;3.90;;;14.10;99.90;;;;;;5054597;28;20426;-63
2021/09/20 07:57:36;;;;;;;4.60;4.20;;;14.10;99.70;;;;;;5054535;28;20438;-63
2021/09/20 08:00:05;;;;;;;4.07;3.67;;;14.20;99.90;;;;;;5054164;28;20820;-63
2021/09/20 08:02:31;;;;;;;4.37;4.03;;;14.20;99.90;;;;;;5054283;28;20337;-63
2021/09/20 08:04:57;;;;;;;4.27;3.90;;;14.10;99.40;;;;;;5054402;28;20548;-63
2021/09/20 08:07:22;;;;;;;4.73;4.33;;;14.20;99.20;;;;;;5054257;28;20220;-63
2021/09/20 08:09:48;;;;;;;5.80;4.83;;;14.20;99.90;;;;;;5054081;28;20176;-63
2021/09/20 08:12:13;;;;;;;6.47;5.00;;;14.40;99.90;;;;;;5054343;28;20529;-63
2021/09/20 08:14:41;;;;;;;4.37;4.07;;;14.50;99.90;;;;;;5054268;28;20171;-63
2021/09/20 08:17:07;;;;;;;6.00;4.97;;;14.70;99.90;;;;;;5054000;28;20164;-64
2021/09/20 08:19:33;;;;;;;4.77;4.37;;;14.80;99.90;;;;;;5053851;28;20911;-63
2021/09/20 08:21:59;;;;;;;4.80;4.17;;;15.00;98.80;;;;;;5053951;28;20549;-63
2021/09/20 08:24:25;;;;;;;4.20;3.87;;;15.00;97.10;;;;;;5054037;28;20418;-63
2021/09/20 08:26:51;;;;;;;3.53;3.27;;;15.10;97.50;;;;;;5054034;28;20833;-64
2021/09/20 08:29:16;;;;;;;4.40;4.00;;;15.20;98.20;;;;;;5053566;28;20476;-64
2021/09/20 08:31:42;;;;;;;4.97;4.53;;;15.30;98.30;;;;;;5053803;28;20171;-63
2021/09/20 08:34:07;;;;;;;3.80;3.50;;;15.50;98.40;;;;;;5053907;28;20187;-63
2021/09/20 08:36:33;;;;;;;5.67;4.03;;;15.70;98.00;;;;;;5053860;28;20160;-63
2021/09/20 08:38:59;;;;;;;5.20;4.60;;;15.80;97.00;;;;;;5052027;28;20242;-66
2021/09/20 08:41:25;;;;;;;4.83;4.43;;;16.00;96.60;;;;;;5053844;28;20452;-66
2021/09/20 08:43:50;;;;;;;4.20;3.90;;;16.20;97.10;;;;;;5053664;28;20820;-64
2021/09/20 08:46:16;;;;;;;3.77;3.40;;;16.60;98.40;;;;;;5053506;28;20164;-64
2021/09/20 08:48:47;;;;;;;4.83;4.43;;;16.80;95.60;;;;;;5053017;28;20183;-64
2021/09/20 08:51:16;;;;;;;4.70;3.90;;;17.10;96.20;;;;;;5052985;28;20406;-62
2021/09/20 08:53:42;;;;;;;4.63;4.03;;;17.40;95.20;;;;;;5051247;28;20773;-64
2021/09/20 08:56:08;;;;;;;4.30;4.00;;;17.50;94.40;;;;;;5053499;28;20437;-63
2021/09/20 08:58:34;;;;;;;5.00;4.70;;;17.70;95.30;;;;;;5052902;28;20517;-63
2021/09/20 09:01:00;;;;;;;4.80;4.37;;;17.80;94.30;;;;;;5052773;28;20501;-65
2021/09/20 09:03:28;;;;;;;4.63;4.23;;;18.10;93.90;;;;;;5053188;28;20199;-63
2021/09/20 09:05:54;;;;;;;5.17;4.40;;;18.40;94.20;;;;;;5053257;28;20476;-63
2021/09/20 09:08:31;;;;;;;5.47;4.97;;;18.30;92.10;;;;;;5052520;28;20445;-63
2021/09/20 09:11:02;;;;;;;4.70;4.30;;;18.60;93.00;;;;;;5053139;28;20414;-64
2021/09/20 09:13:57;;;;;;;4.70;4.30;;;19.00;94.00;;;;;;5053070;28;20402;-63
2021/09/20 09:16:28;;;;;;;5.30;4.67;;;19.20;91.30;;;;;;5051223;28;20415;-63
2021/09/20 09:19:08;;;;;;;4.80;4.40;;;18.80;90.90;;;;;;5052658;28;20475;-63
2021/09/20 09:21:37;;;;;;;4.20;3.93;;;19.60;92.80;;;;;;5052768;28;20410;-63
2021/09/20 09:24:06;;;;;;;4.23;3.93;;;19.80;90.40;;;;;;5052767;28;20399;-64
2021/09/20 09:26:32;;;;;;;3.37;3.17;;;20.00;90.60;;;;;;5052873;28;20779;-63
2021/09/20 09:29:08;;;;;;;3.33;3.00;;;20.30;89.20;;;;;;5052413;28;20456;-64
2021/09/20 09:31:36;;;;;;;3.90;3.70;;;20.40;90.10;;;;;;5052641;28;20570;-63
2021/09/20 09:34:15;;;;;;;3.50;3.30;;;20.10;86.40;;;;;;5052707;28;20402;-64
2021/09/20 09:36:42;;;;;;;3.57;3.37;;;19.80;87.80;;;;;;5052757;28;20411;-66
2021/09/20 09:39:08;;;;;;;6.27;5.87;;;19.80;88.40;;;;;;5052104;28;20441;-64
2021/09/20 09:41:40;;;;;;;3.00;2.73;;;19.80;90.20;;;;;;5052353;28;20399;-64
2021/09/20 09:44:12;;;;;;;4.70;3.70;;;19.70;88.20;;;;;;5052590;28;20222;-64
2021/09/20 09:46:46;;;;;;;2.93;2.73;;;19.80;89.30;;;;;;5052440;28;20402;-65
2021/09/20 09:49:20;;;;;;;4.50;4.17;;;19.90;90.80;;;;;;5052076;28;20448;-65
2021/09/20 09:52:02;;;;;;;3.33;3.10;;;20.30;89.70;;;;;;5052326;28;20402;-64
2021/09/20 09:54:36;;;;;;;3.30;3.10;;;20.90;86.60;;;;;;5052475;28;20757;-64
2021/09/20 09:57:23;;;;;;;3.50;3.30;;;21.30;88.20;;;;;;5052118;28;20493;-63
2021/09/20 09:59:59;;;;;;;3.67;3.47;;;21.10;84.70;;;;;;5051878;28;20410;-62
2021/09/20 10:02:30;;;;;;;3.57;3.27;;;20.80;83.10;;;;;;5052202;28;20498;-62
2021/09/20 10:04:58;;;;;;;4.03;3.73;;;20.60;86.60;;;;;;5052255;28;20430;-62
2021/09/20 10:07:27;;;;;;;3.93;3.60;;;21.00;90.00;;;;;;5051880;28;20529;-65
2021/09/20 10:09:54;;;;;;;4.33;3.97;;;21.50;87.50;;;;;;5051726;28;20403;-62
2021/09/20 10:12:23;;;;;;;3.60;3.30;;;21.90;85.30;;;;;;5051561;28;20430;-63
2021/09/20 10:14:49;;;;;;;3.20;3.00;;;22.20;87.90;;;;;;5051832;28;20413;-64
2021/09/20 10:17:19;;;;;;;4.30;4.00;;;22.90;88.20;;;;;;5051993;28;20419;-63
2021/09/20 10:19:46;;;;;;;4.40;4.10;;;23.40;85.60;;;;;;5051626;28;20481;-65
2021/09/20 10:22:14;;;;;;;4.03;3.73;;;23.50;81.70;;;;;;5051844;28;20442;-63
2021/09/20 10:24:42;;;;;;;3.30;3.10;;;23.50;78.90;;;;;;5051930;28;20905;-63
2021/09/20 10:27:09;;;;;;;3.87;3.57;;;23.20;78.10;;;;;;5051689;28;20788;-62
2021/09/20 10:29:37;;;;;;;5.80;5.13;;;22.70;78.40;;;;;;5051484;28;20403;-65
2021/09/20 10:32:03;;;;;;;4.33;3.97;;;22.20;80.20;;;;;;5051851;28;20419;-63
2021/09/20 10:34:30;;;;;;;4.00;3.70;;;21.80;80.10;;;;;;5051708;28;20421;-64
2021/09/20 10:37:13;;;;;;;4.40;3.93;;;22.10;81.70;;;;;;5051819;28;20411;-63
2021/09/20 10:40:06;;;;;;;3.77;3.47;;;22.80;84.60;;;;;;5051477;28;20475;-63
2021/09/20 10:42:48;;;;;;;4.00;3.63;;;23.30;81.60;;;;;;5051666;28;20442;-64
2021/09/20 10:45:49;;;;;;;3.80;3.60;;;23.90;81.20;;;;;;5051785;28;20426;-64
2021/09/20 10:48:44;;;;;;;4.93;4.50;;;24.30;81.80;;;;;;5048419;28;20520;-63
2021/09/20 10:51:13;;;;;;;4.97;4.67;;;24.00;79.00;;;;;;5051415;28;20410;-64
2021/09/20 10:53:39;;;;;;;5.67;5.03;;;23.90;79.60;;;;;;5051601;28;20406;-63
2021/09/20 10:56:06;;;;;;;4.60;4.23;;;24.20;80.30;;;;;;5051577;28;20402;-63
2021/09/20 10:58:35;;;;;;;4.37;4.07;;;24.70;80.30;;;;;;5051145;28;20422;-64
2021/09/20 11:01:15;;;;;;;4.20;3.90;;;24.60;76.70;;;;;;5051403;28;20493;-63
2021/09/20 11:03:46;;;;;;;6.20;4.30;;;24.90;74.50;;;;;;5051339;28;20965;-63
2021/09/20 11:06:29;;;;;;;5.20;4.80;;;24.80;77.80;;;;;;5051483;28;20490;-64
2021/09/20 11:08:58;;;;;;;5.37;4.97;;;24.40;76.80;;;;;;5066157;22;20488;-64
2021/09/20 11:11:42;;;;;;;5.00;4.50;;;24.30;77.10;;;;;;5071417;28;20488;-64
2021/09/20 11:14:13;;;;;;;4.97;4.43;;;24.00;77.70;;;;;;5071405;28;20435;-64
2021/09/20 11:17:15;;;;;;;5.20;4.80;;;24.70;81.00;;;;;;5071381;28;20748;-64
2021/09/20 11:19:45;;;;;;;5.40;5.00;;;25.40;77.90;;;;;;5051072;28;20408;-66
2021/09/20 11:22:19;;;;;;;6.20;5.77;;;25.10;73.40;;;;;;5051371;28;20825;-67
2021/09/20 11:25:03;;;;;;;5.70;5.20;;;25.40;74.40;;;;;;5053264;28;20406;-66
2021/09/20 11:27:35;;;;;;;5.03;4.30;;;25.80;76.60;;;;;;5054959;28;20446;-64
2021/09/20 11:30:11;;;;;;;4.70;4.40;;;26.30;74.50;;;;;;5054714;28;20481;-67
2021/09/20 11:32:46;;;;;;;5.27;4.87;;;26.70;69.20;;;;;;5055030;28;20456;-64
2021/09/20 11:35:13;;;;;;;6.13;5.63;;;27.00;67.90;;;;;;5054928;28;20405;-64
2021/09/20 11:37:39;;;;;;;4.80;4.50;;;27.20;70.90;;;;;;5054779;28;20421;-64
2021/09/20 11:40:11;;;;;;;5.93;5.33;;;27.80;72.00;;;;;;5054436;28;20399;-64
2021/09/20 11:42:36;;;;;;;6.20;5.70;;;28.30;71.70;;;;;;5054657;28;20476;-65
2021/09/20 11:45:07;;;;;;;6.07;5.50;;;28.30;68.00;;;;;;5054750;28;20406;-64
2021/09/20 11:47:51;;;;;;;6.43;5.60;;;27.60;67.80;;;;;;5054476;28;20196;-64
2021/09/20 11:50:23;;;;;;;6.10;5.70;;;26.50;66.30;;;;;;5054478;28;20485;-64
2021/09/20 11:52:52;;;;;;;6.10;5.60;;;26.40;71.80;;;;;;5054645;28;20414;-64
2021/09/20 11:55:31;;;;;;;6.10;5.70;;;26.90;72.00;;;;;;5054608;28;20414;-64
2021/09/20 11:58:04;;;;;;;5.53;5.03;;;27.70;70.50;;;;;;5054238;28;20422;-64
2021/09/20 12:00:34;;;;;;;5.43;5.03;;;28.20;66.70;;;;;;5054470;28;20441;-64
2021/09/20 12:03:02;;;;;;;5.30;5.00;;;28.60;67.90;;;;;;5054373;28;20533;-64
2021/09/20 12:05:30;;;;;;;5.67;5.27;;;29.10;66.90;;;;;;5054361;28;20414;-64
2021/09/20 12:07:57;;;;;;;6.10;5.60;;;29.40;66.70;;;;;;5054155;28;20414;-65
2021/09/20 12:10:38;;;;;;;5.97;5.37;;;29.10;59.90;;;;;;5053979;28;20422;-67
2021/09/20 12:13:18;;;;;;;6.37;5.87;;;28.10;60.00;;;;;;5054140;28;20414;-65
2021/09/20 12:15:46;;;;;;;5.80;5.40;;;26.90;62.20;;;;;;5054153;28;20468;-64
2021/09/20 12:18:19;;;;;;;6.60;6.10;;;26.40;66.50;;;;;;5053749;28;20431;-64
2021/09/20 12:20:46;;;;;;;5.93;5.43;;;27.10;69.50;;;;;;5053893;28;20481;-65
2021/09/20 12:23:11;;;;;;;6.00;5.43;;;28.10;70.40;;;;;;5053946;28;20503;-65
2021/09/20 12:25:41;;;;;;;5.80;5.37;;;28.80;66.70;;;;;;5053998;28;20406;-64
2021/09/20 12:28:31;;;;;;;5.40;4.90;;;29.10;64.10;;;;;;5053548;28;20192;-64
2021/09/20 12:31:05;;;;;;;5.67;5.27;;;29.20;60.60;;;;;;5053798;28;20416;-64
2021/09/20 12:33:46;;;;;;;6.37;5.80;;;29.00;60.50;;;;;;5053852;28;20409;-65
2021/09/20 12:36:19;;;;;;;6.37;5.57;;;28.00;60.40;;;;;;5053183;28;20745;-65
2021/09/20 12:38:44;;;;;;;5.60;5.20;;;28.00;66.60;;;;;;5053796;28;20422;-65
2021/09/20 12:41:15;;;;;;;6.80;6.23;;;28.80;66.90;;;;;;5053508;28;20399;-66
2021/09/20 12:43:42;;;;;;;7.00;6.50;;;29.20;61.70;;;;;;5053452;28;20192;-65
2021/09/20 12:46:13;;;;;;;5.63;5.13;;;29.10;59.20;;;;;;5053590;28;20406;-65
2021/09/20 12:48:41;;;;;;;6.40;5.87;;;29.50;60.40;;;;;;5053293;28;20422;-64
2021/09/20 12:51:10;;;;;;;6.40;5.90;;;29.40;60.20;;;;;;5053452;28;20409;-65